createdAt,value
2024-05-09T00:02:14.716Z,5.96
2024-05-09T00:05:42.866Z,6.24
2024-05-09T00:09:09.793Z,7.89
2024-05-09T00:12:36.373Z,9.25
2024-05-09T00:16:15.698Z,10.14
2024-05-09T00:19:43.676Z,10.73
2024-05-09T00:23:12.397Z,10.83
2024-05-09T00:26:38.306Z,9.56
2024-05-09T00:30:07.055Z,8.37
2024-05-09T00:33:33.749Z,7.61
2024-05-09T00:37:00.864Z,7.04
2024-05-09T00:40:37.712Z,6.60
2024-05-09T00:44:08.497Z,6.24
2024-05-09T00:47:35.128Z,5.98
2024-05-09T00:51:02.691Z,5.73
2024-05-09T00:54:29.395Z,5.87
2024-05-09T00:57:56.588Z,7.47
2024-05-09T01:01:25.048Z,8.79
2024-05-09T01:04:53.580Z,9.61
2024-05-09T01:08:20.554Z,10.22
2024-05-09T01:11:54.391Z,10.31
2024-05-09T01:15:21.070Z,8.98
2024-05-09T01:18:47.596Z,7.93
2024-05-09T01:22:14.340Z,7.16
2024-05-09T01:25:40.905Z,6.55
2024-05-09T01:29:20.080Z,6.06
2024-05-09T02:04:37.857Z,3.20
2024-05-09T02:08:04.506Z,3.41
2024-05-09T02:11:31.243Z,5.14
2024-05-09T02:14:58.205Z,6.60
2024-05-09T02:18:24.669Z,7.53
2024-05-09T02:21:51.157Z,8.25
2024-05-09T02:25:18.023Z,8.91
2024-05-09T02:28:44.451Z,9.46
2024-05-09T02:32:11.006Z,9.90
2024-05-09T02:35:37.605Z,9.68
2024-05-09T02:39:04.290Z,8.20
2024-05-09T02:42:31.326Z,7.08
2024-05-09T02:45:57.814Z,6.28
2024-05-09T02:49:24.431Z,6.10
2024-05-09T02:52:51.316Z,7.40
2024-05-09T02:56:17.837Z,8.36
2024-05-09T02:59:45.177Z,8.93
2024-05-09T03:03:14.455Z,9.31
2024-05-09T03:06:44.092Z,9.20
2024-05-09T03:10:18.338Z,7.77
2024-05-09T03:13:51.514Z,6.61
2024-05-09T03:17:18.615Z,5.85
2024-05-09T03:20:45.348Z,5.24
2024-05-09T03:24:13.053Z,4.76
2024-05-09T03:27:41.027Z,4.36
2024-05-09T03:31:10.381Z,4.43
2024-05-09T03:34:40.695Z,6.04
2024-05-09T03:38:07.259Z,7.46
2024-05-09T03:41:33.917Z,8.60
2024-05-09T03:45:00.884Z,9.95
2024-05-09T03:48:27.823Z,10.10
2024-05-09T03:51:54.293Z,9.63
2024-05-09T03:55:20.678Z,9.73
2024-05-09T03:58:47.490Z,9.95
2024-05-09T04:02:14.155Z,10.15
2024-05-09T04:05:42.333Z,10.63
2024-05-09T04:09:09.975Z,11.17
2024-05-09T04:12:36.575Z,11.71
2024-05-09T04:16:03.048Z,12.18
2024-05-09T04:19:30.048Z,12.69
2024-05-09T04:22:56.520Z,13.14
2024-05-09T04:26:23.109Z,13.48
2024-05-09T04:29:49.620Z,13.87
2024-05-09T04:33:16.475Z,14.16
2024-05-09T04:36:44.666Z,14.16
2024-05-09T04:40:24.000Z,13.98
2024-05-09T04:43:57.796Z,13.88
2024-05-09T04:47:24.419Z,13.96
2024-05-09T04:50:51.289Z,14.14
2024-05-09T04:54:26.267Z,14.24
2024-05-09T04:58:01.564Z,14.06
